• Join FlightAware (Why Join?)
  • Login
  • US Flag 
08:39PM EDT


 

Airport Tracker/Info


-or-


 

Live Flight TrackerFlight Track Log ✈ ASQ4976 ✈ 05-May-2013 ✈ KATL - KALB

Flight Track Log - Related Links

Times and Time Zones

All times are in EDT time to prevent confusion due to time zone crossing. See the ASQ4976 flight status page for this flight to view local times or setup timezone preferences in your user account.

Time Position Orientation Groundspeed Altitude Reporting Facility
EDT Latitude Longitude Course Direction KTS MPH feet Rate Location/Type
10:30AM 33.6667 -84.5000 North 208 239 2,900  Level Atlanta TRACON
10:31AM 33.6833 -84.5667 287° West 246 283 5,500 2,640 Climbing Atlanta TRACON
10:32AM 33.7500 -84.5833 348° North 276 318 8,200 1,920 Climbing Atlanta TRACON
10:33AM 33.8833 -84.4792 33° Northeast 327 376 11,100 1,740 Climbing Atlanta Center
10:34AM 33.9692 -84.3894 41° Northeast 376 433 13,300 2,100 Climbing Atlanta Center
10:35AM 34.0015 -84.2667 North  Level FlightAware Approximate
10:35AM 34.0756 -84.3522 16° North 378 435 15,300  Level Atlanta Center
10:36AM 34.1967 -84.3150 14° North 449 517 17,400 2,040 Climbing Atlanta Center
10:37AM 34.3158 -84.2778 14° North 438 504 19,400 1,860 Climbing Atlanta Center
10:38AM 34.4411 -84.2453 12° North 445 512 21,200 1,560 Climbing Atlanta Center
10:40AM 34.6958 -84.1878 11° North 467 537 24,200 1,440 Climbing Atlanta Center
10:41AM 34.8294 -84.1578 10° North 473 544 25,600 1,260 Climbing Atlanta Center
10:42AM 34.9650 -84.1225 12° North 478 550 26,800 1,080 Climbing Atlanta Center
10:43AM 35.1047 -84.0922 10° North 494 568 27,800 960 Climbing Atlanta Center
10:44AM 35.2447 -84.0592 11° North 504 580 28,800 960 Climbing Atlanta Center
10:45AM 35.3867 -84.0233 12° North 509 586 29,800 960 Climbing Atlanta Center
10:46AM 35.5283 -83.9903 11° North 509 586 30,800 960 Climbing Atlanta Center
10:47AM 35.6744 -83.9544 11° North 515 593 31,800 900 Climbing Atlanta Center
10:48AM 35.8206 -83.9158 12° North 526 605 32,700 840 Climbing Atlanta Center
10:49AM 35.9600 -83.8592 18° North 526 605 33,500 840 Climbing Atlanta Center
10:50AM 36.0872 -83.7742 28° Northeast 520 598 34,400 900 Climbing Atlanta Center
10:51AM 36.1975 -83.6631 39° Northeast 512 589 35,300 780 Climbing Atlanta Center
10:52AM 36.3033 -83.5517 40° Northeast 507 583 36,000 780 Climbing Atlanta Center
10:53AM 36.4072 -83.4350 42° Northeast 502 578 36,900 300 Climbing Atlanta Center
10:55AM 36.6203 -83.2483 35° Northeast 526 605 37,000  Climbing Indianapolis Center
10:56AM 36.7583 -83.1336 34° Northeast 513 590 37,000  Level Indianapolis Center
10:57AM 36.8778 -83.0356 33° Northeast 508 585 37,000  Level Indianapolis Center
10:59AM 36.9978 -82.9347 34° Northeast 512 589 37,000  Level Indianapolis Center
11:00AM 37.1161 -82.8172 38° Northeast 516 594 37,000  Level Indianapolis Center
11:01AM 37.2264 -82.7047 39° Northeast 511 588 37,000  Level Indianapolis Center
11:02AM 37.3381 -82.5917 39° Northeast 514 592 37,000  Level Indianapolis Center
11:03AM 37.4500 -82.4778 39° Northeast 517 595 37,000  Level Indianapolis Center
11:04AM 37.5611 -82.3625 39° Northeast 515 593 37,000  Level Indianapolis Center
11:05AM 37.6908 -82.2250 40° Northeast 519 597 37,000  Level Indianapolis Center
11:06AM 37.8039 -82.1103 39° Northeast 520 598 37,000  Level Indianapolis Center
11:07AM 37.9106 -81.9994 39° Northeast 521 600 37,000  Level Indianapolis Center
11:08AM 38.0200 -81.8839 40° Northeast 516 594 37,000  Level Indianapolis Center
11:09AM 38.1297 -81.7669 40° Northeast 515 593 37,000  Level Indianapolis Center
11:10AM 38.2378 -81.6519 40° Northeast 509 586 37,000  Level Indianapolis Center
11:11AM 38.3672 -81.5142 40° Northeast 508 585 37,000  Level Indianapolis Center
11:12AM 38.4733 -81.3994 40° Northeast 506 582 37,000  Level Indianapolis Center
11:13AM 38.5786 -81.2856 40° Northeast 505 581 37,000  Level Indianapolis Center
11:14AM 38.6842 -81.1725 40° Northeast 503 579 37,000  Level Indianapolis Center
11:15AM 38.7911 -81.0578 40° Northeast 504 580 37,000  Level Indianapolis Center
11:16AM 38.9181 -80.9183 41° Northeast 506 582 37,000  Level Indianapolis Center
11:17AM 39.0244 -80.8003 41° Northeast 504 580 37,000  Level Indianapolis Center
11:18AM 39.1189 -80.6675 47° Northeast 503 579 37,000 -60 Level Indianapolis Center
11:19AM 39.2122 -80.5364 47° Northeast 498 573 36,900  Descending Indianapolis Center
11:20AM 39.3061 -80.4050 47° Northeast 497 572 37,000  Climbing Indianapolis Center
11:21AM 39.3997 -80.2739 47° Northeast 497 572 37,000  Level Indianapolis Center
11:22AM 39.4703 -80.1769 47° Northeast 489 563 37,000  Level Cleveland Center
11:23AM 39.5594 -80.0528 47° Northeast 489 563 37,000  Level Cleveland Center
11:24AM 39.6464 -79.9306 47° Northeast 476 548 37,000  Level Cleveland Center
11:25AM 39.7269 -79.8083 49° Northeast 453 521 37,000  Level Cleveland Center
11:26AM 39.8094 -79.6858 49° Northeast 447 514 37,000  Level Cleveland Center
11:27AM 39.8936 -79.5603 49° Northeast 447 514 37,000  Level Cleveland Center
11:28AM 39.9758 -79.4317 50° Northeast 447 514 37,000  Level Cleveland Center
11:29AM 40.0683 -79.2944 49° Northeast 452 520 37,000  Level Cleveland Center
11:30AM 40.1522 -79.1678 49° Northeast 457 526 37,000  Level Cleveland Center
11:31AM 40.2381 -79.0356 50° Northeast 463 533 37,000  Level Cleveland Center
11:32AM 40.3217 -78.9083 49° Northeast 463 533 37,000  Level Cleveland Center
11:33AM 40.4072 -78.7781 49° Northeast 463 533 37,000  Level Cleveland Center
11:34AM 40.4847 -78.6614 49° Northeast 468 539 37,000  Level Cleveland Center
11:36AM 40.6367 -78.4267 49° Northeast 476 548 37,000  Level New York Center
11:37AM 40.7222 -78.2936 50° Northeast 468 539 37,000  Level New York Center
11:38AM 40.8056 -78.1656 49° Northeast 468 539 37,000  Level New York Center
11:39AM 40.8864 -78.0344 51° Northeast 473 544 37,000 -420 Level New York Center
11:40AM 40.9736 -77.9061 48° Northeast 468 539 36,200 -900 Descending New York Center
11:41AM 41.0600 -77.7831 47° Northeast 468 539 35,300 -660 Descending New York Center
11:42AM 41.1467 -77.6569 48° Northeast 462 532 35,000 -780 Descending New York Center
11:43AM 41.2308 -77.5331 48° Northeast 457 526 33,800 -1,620 Descending New York Center
11:44AM 41.3169 -77.4092 47° Northeast 457 526 31,800 -1,920 Descending New York Center
11:45AM 41.3919 -77.2975 48° Northeast 452 520 30,000 -1,440 Descending New York Center
11:46AM 41.4828 -77.1594 49° Northeast 452 520 29,000 -540 Descending New York Center
11:47AM 41.5664 -77.0372 48° Northeast 452 520 29,000  Level New York Center
11:48AM 41.6478 -76.9142 48° Northeast 452 520 29,000  Level New York Center
11:49AM 41.7314 -76.7886 48° Northeast 452 520 29,000  Level New York Center
11:50AM 41.8167 -76.6628 48° Northeast 458 527 29,000  Level New York Center
11:51AM 41.8978 -76.5389 49° Northeast 458 527 29,000 -1,080 Level New York Center
11:53AM 42.0508 -76.3100 48° Northeast 456 525 25,900 -1,680 Descending Boston Center
11:54AM 42.1278 -76.1889 49° Northeast 443 510 24,100 -960 Descending Boston Center
11:55AM 42.1886 -76.0522 59° Northeast 428 493 24,000 -60 Descending Boston Center
11:56AM 42.2458 -75.8900 64° Northeast 423 487 24,000  Level Boston Center
11:57AM 42.2981 -75.7469 64° Northeast 428 493 24,000  Level Boston Center
11:58AM 42.3458 -75.6006 66° East 428 493 24,000 -600 Level Boston Center
11:59AM 42.3958 -75.4542 65° Northeast 423 487 22,900 -1,320 Descending Boston Center
12:00PM 42.4453 -75.3100 65° Northeast 423 487 21,400 -1,500 Descending Boston Center
12:01PM 42.4822 -75.1653 71° East 412 474 19,900 -1,620 Descending Boston Center
12:02PM 42.5131 -75.0147 74° East 406 467 18,200 -1,560 Descending Boston Center
12:03PM 42.5364 -74.9028 74° East 393 452 16,800 -1,920 Descending Boston Center
12:04PM 42.5667 -74.7489 75° East 388 447 14,400 -2,340 Descending Boston Center
12:05PM 42.5947 -74.5978 76° East 383 441 12,200 -1,800 Descending Boston Center
12:05PM 42.6156 -74.4772 77° East 366 421 11,000 -900 Descending Boston Center
12:06PM 42.6239 -74.3533 85° East 304 350 10,600 -660 Descending Boston Center
12:07PM 42.6361 -74.2519 81° East 261 300 9,700 -960 Descending Boston Center
12:08PM 42.6647 -74.1597 67° East 267 307 8,700 -1,080 Descending Boston Center
12:09PM 42.6992 -74.0731 62° Northeast 263 303 7,600 -1,020 Descending Boston Center
12:10PM 42.7417 -74.0203 42° Northeast 228 262 6,900 -900 Descending Boston Center
12:11PM 42.7458 -74.0119 56° Northeast 245 282 6,700 -1,200 Descending Boston Center
12:11PM 42.7839 -73.9706 39° Northeast 195 224 5,700 -1,260 Descending Boston Center
12:12PM 42.8325 -73.9322 30° Northeast 186 214 4,400 -1,200 Descending Boston Center
12:13PM 42.8417 -73.8672 79° East 188 216 3,300 -1,320 Descending Boston Center
12:14PM 42.8256 -73.8131 112° Southeast 146 168 1,900 -360 Descending Boston Center
12:15PM 42.8694 -73.7969 15° North 167 192 2,800 -900 Climbing Boston Center
12:15PM 42.7881 -73.8094 186° South 135 155 1,000 16,200 Descending Boston Center
12:16PM 42.8953 -73.7297 29° Northeast 167 192 19,000 12,960 Climbing Boston Center
12:17PM 42.9169 -73.6733 62° Northeast 167 192 19,000  Level Boston Center
12:18PM 42.9383 -73.6169 63° Northeast 167 192 19,000  Level Boston Center